sensor_id;sensor_type;location;lat;lon;timestamp;P1;durP1;ratioP1;P2;durP2;ratioP2
29006;SDS011;16104;48.642;9.008;2024-01-16T00:00:40;12.15;;;5.00;;
29006;SDS011;16104;48.642;9.008;2024-01-16T00:05:35;7.95;;;4.75;;
29006;SDS011;16104;48.642;9.008;2024-01-16T00:10:31;8.82;;;4.93;;
29006;SDS011;16104;48.642;9.008;2024-01-16T00:15:26;7.93;;;4.35;;
29006;SDS011;16104;48.642;9.008;2024-01-16T00:20:22;10.13;;;4.68;;
29006;SDS011;16104;48.642;9.008;2024-01-16T00:25:19;8.57;;;4.55;;
29006;SDS011;16104;48.642;9.008;2024-01-16T00:30:15;7.68;;;4.57;;
29006;SDS011;16104;48.642;9.008;2024-01-16T00:35:11;9.77;;;4.50;;
29006;SDS011;16104;48.642;9.008;2024-01-16T00:40:06;7.25;;;3.97;;
29006;SDS011;16104;48.642;9.008;2024-01-16T00:45:03;7.88;;;4.40;;
29006;SDS011;16104;48.642;9.008;2024-01-16T00:49:59;7.20;;;4.60;;
29006;SDS011;16104;48.642;9.008;2024-01-16T00:54:58;7.68;;;4.03;;
29006;SDS011;16104;48.642;9.008;2024-01-16T00:59:54;9.70;;;4.10;;
29006;SDS011;16104;48.642;9.008;2024-01-16T05:04:01;6.82;;;3.70;;
29006;SDS011;16104;48.642;9.008;2024-01-16T05:08:58;6.25;;;3.38;;
29006;SDS011;16104;48.642;9.008;2024-01-16T05:13:54;7.63;;;3.67;;
29006;SDS011;16104;48.642;9.008;2024-01-16T05:18:53;11.07;;;3.70;;
29006;SDS011;16104;48.642;9.008;2024-01-16T05:23:49;7.40;;;3.22;;
29006;SDS011;16104;48.642;9.008;2024-01-16T05:28:44;6.20;;;3.50;;
29006;SDS011;16104;48.642;9.008;2024-01-16T05:33:39;7.03;;;3.50;;
29006;SDS011;16104;48.642;9.008;2024-01-16T05:38:35;7.32;;;4.05;;
29006;SDS011;16104;48.642;9.008;2024-01-16T05:43:32;5.75;;;3.53;;
29006;SDS011;16104;48.642;9.008;2024-01-16T05:48:28;7.32;;;3.60;;
29006;SDS011;16104;48.642;9.008;2024-01-16T05:53:23;7.85;;;4.63;;
29006;SDS011;16104;48.642;9.008;2024-01-16T05:58:19;7.60;;;4.40;;
29006;SDS011;16104;48.642;9.008;2024-01-16T06:03:14;5.45;;;3.78;;
29006;SDS011;16104;48.642;9.008;2024-01-16T06:08:10;6.55;;;4.63;;
29006;SDS011;16104;48.642;9.008;2024-01-16T06:13:05;7.10;;;3.92;;
29006;SDS011;16104;48.642;9.008;2024-01-16T06:18:01;5.38;;;3.45;;
29006;SDS011;16104;48.642;9.008;2024-01-16T06:22:56;11.57;;;6.05;;
29006;SDS011;16104;48.642;9.008;2024-01-16T06:27:52;8.00;;;4.75;;
29006;SDS011;16104;48.642;9.008;2024-01-16T06:32:47;9.48;;;4.25;;
29006;SDS011;16104;48.642;9.008;2024-01-16T06:37:43;8.80;;;3.65;;
29006;SDS011;16104;48.642;9.008;2024-01-16T06:42:39;5.88;;;3.85;;
29006;SDS011;16104;48.642;9.008;2024-01-16T06:47:34;6.15;;;3.35;;
29006;SDS011;16104;48.642;9.008;2024-01-16T06:52:30;5.40;;;3.47;;
29006;SDS011;16104;48.642;9.008;2024-01-16T06:57:25;5.45;;;3.63;;
29006;SDS011;16104;48.642;9.008;2024-01-16T07:02:22;6.70;;;3.88;;
29006;SDS011;16104;48.642;9.008;2024-01-16T07:07:18;10.70;;;4.20;;
29006;SDS011;16104;48.642;9.008;2024-01-16T07:12:13;7.60;;;4.03;;
29006;SDS011;16104;48.642;9.008;2024-01-16T07:17:09;7.43;;;3.80;;
29006;SDS011;16104;48.642;9.008;2024-01-16T07:22:04;8.00;;;3.85;;
29006;SDS011;16104;48.642;9.008;2024-01-16T07:27:00;7.60;;;3.75;;
29006;SDS011;16104;48.642;9.008;2024-01-16T07:31:55;8.18;;;4.00;;
29006;SDS011;16104;48.642;9.008;2024-01-16T07:36:51;6.80;;;3.95;;
29006;SDS011;16104;48.642;9.008;2024-01-16T07:41:46;8.38;;;4.40;;
29006;SDS011;16104;48.642;9.008;2024-01-16T07:46:42;8.00;;;4.55;;
29006;SDS011;16104;48.642;9.008;2024-01-16T07:51:37;9.30;;;4.80;;
29006;SDS011;16104;48.642;9.008;2024-01-16T07:56:33;6.63;;;4.13;;
29006;SDS011;16104;48.642;9.008;2024-01-16T08:01:29;8.55;;;4.53;;
29006;SDS011;16104;48.642;9.008;2024-01-16T08:06:25;25.58;;;10.95;;
29006;SDS011;16104;48.642;9.008;2024-01-16T08:11:21;22.17;;;10.85;;
29006;SDS011;16104;48.642;9.008;2024-01-16T08:16:17;11.55;;;6.05;;
29006;SDS011;16104;48.642;9.008;2024-01-16T08:21:12;7.72;;;4.68;;
29006;SDS011;16104;48.642;9.008;2024-01-16T08:26:08;6.50;;;3.50;;
29006;SDS011;16104;48.642;9.008;2024-01-16T08:31:04;6.63;;;3.85;;
29006;SDS011;16104;48.642;9.008;2024-01-16T08:35:59;7.15;;;4.15;;
29006;SDS011;16104;48.642;9.008;2024-01-16T08:40:55;8.77;;;5.18;;
29006;SDS011;16104;48.642;9.008;2024-01-16T08:45:50;8.48;;;4.72;;
29006;SDS011;16104;48.642;9.008;2024-01-16T08:50:46;8.38;;;3.92;;
29006;SDS011;16104;48.642;9.008;2024-01-16T08:55:41;5.78;;;3.90;;
29006;SDS011;16104;48.642;9.008;2024-01-16T09:00:37;9.45;;;4.68;;
29006;SDS011;16104;48.642;9.008;2024-01-16T09:05:32;6.78;;;3.60;;
29006;SDS011;16104;48.642;9.008;2024-01-16T09:10:31;6.28;;;3.88;;
29006;SDS011;16104;48.642;9.008;2024-01-16T09:15:26;6.38;;;3.70;;
29006;SDS011;16104;48.642;9.008;2024-01-16T09:20:22;7.80;;;4.20;;
29006;SDS011;16104;48.642;9.008;2024-01-16T09:25:18;5.85;;;3.58;;
29006;SDS011;16104;48.642;9.008;2024-01-16T09:30:15;6.65;;;3.67;;
29006;SDS011;16104;48.642;9.008;2024-01-16T09:35:11;9.05;;;4.55;;
29006;SDS011;16104;48.642;9.008;2024-01-16T09:40:07;7.65;;;3.85;;
29006;SDS011;16104;48.642;9.008;2024-01-16T09:45:03;6.35;;;3.60;;
29006;SDS011;16104;48.642;9.008;2024-01-16T09:49:59;7.57;;;3.30;;
29006;SDS011;16104;48.642;9.008;2024-01-16T09:54:57;5.68;;;3.67;;
29006;SDS011;16104;48.642;9.008;2024-01-16T09:59:54;7.13;;;3.20;;
29006;SDS011;16104;48.642;9.008;2024-01-16T10:04:52;5.35;;;3.28;;
29006;SDS011;16104;48.642;9.008;2024-01-16T10:09:48;5.25;;;3.22;;
29006;SDS011;16104;48.642;9.008;2024-01-16T10:14:43;5.57;;;3.40;;
29006;SDS011;16104;48.642;9.008;2024-01-16T10:19:50;5.65;;;3.38;;
29006;SDS011;16104;48.642;9.008;2024-01-16T10:25:03;5.05;;;3.15;;
29006;SDS011;16104;48.642;9.008;2024-01-16T10:29:59;4.60;;;2.50;;
29006;SDS011;16104;48.642;9.008;2024-01-16T10:35:08;4.07;;;2.65;;
29006;SDS011;16104;48.642;9.008;2024-01-16T10:40:08;4.47;;;2.60;;
29006;SDS011;16104;48.642;9.008;2024-01-16T10:45:05;5.35;;;2.92;;
29006;SDS011;16104;48.642;9.008;2024-01-16T10:50:01;6.38;;;3.20;;
29006;SDS011;16104;48.642;9.008;2024-01-16T10:54:57;6.07;;;2.70;;
29006;SDS011;16104;48.642;9.008;2024-01-16T11:00:08;3.95;;;2.60;;
29006;SDS011;16104;48.642;9.008;2024-01-16T11:05:05;4.32;;;2.53;;
29006;SDS011;16104;48.642;9.008;2024-01-16T11:10:01;5.90;;;2.85;;
29006;SDS011;16104;48.642;9.008;2024-01-16T11:14:58;5.03;;;2.72;;
29006;SDS011;16104;48.642;9.008;2024-01-16T11:20:02;3.72;;;2.42;;
29006;SDS011;16104;48.642;9.008;2024-01-16T11:25:11;3.60;;;2.72;;
29006;SDS011;16104;48.642;9.008;2024-01-16T11:30:09;3.95;;;2.67;;
29006;SDS011;16104;48.642;9.008;2024-01-16T11:35:09;4.80;;;2.70;;
29006;SDS011;16104;48.642;9.008;2024-01-16T11:50:27;6.60;;;2.38;;
29006;SDS011;16104;48.642;9.008;2024-01-16T11:55:27;3.30;;;2.20;;
29006;SDS011;16104;48.642;9.008;2024-01-16T12:00:27;5.45;;;2.20;;
29006;SDS011;16104;48.642;9.008;2024-01-16T12:05:26;3.17;;;2.17;;
29006;SDS011;16104;48.642;9.008;2024-01-16T12:10:22;5.82;;;2.33;;
29006;SDS011;16104;48.642;9.008;2024-01-16T12:15:20;5.22;;;2.40;;
29006;SDS011;16104;48.642;9.008;2024-01-16T12:20:16;7.47;;;3.40;;
29006;SDS011;16104;48.642;9.008;2024-01-16T12:25:13;20.17;;;10.73;;
29006;SDS011;16104;48.642;9.008;2024-01-16T12:30:15;6.32;;;2.85;;
29006;SDS011;16104;48.642;9.008;2024-01-16T12:35:11;5.43;;;2.72;;
29006;SDS011;16104;48.642;9.008;2024-01-16T12:40:07;3.33;;;2.10;;
29006;SDS011;16104;48.642;9.008;2024-01-16T12:45:07;3.72;;;2.28;;
29006;SDS011;16104;48.642;9.008;2024-01-16T12:50:04;3.75;;;2.15;;
29006;SDS011;16104;48.642;9.008;2024-01-16T12:55:00;4.50;;;1.90;;
29006;SDS011;16104;48.642;9.008;2024-01-16T12:59:56;5.00;;;2.33;;
29006;SDS011;16104;48.642;9.008;2024-01-16T13:04:59;2.37;;;1.60;;
29006;SDS011;16104;48.642;9.008;2024-01-16T13:10:07;2.80;;;2.00;;
29006;SDS011;16104;48.642;9.008;2024-01-16T13:15:04;1.98;;;1.67;;
29006;SDS011;16104;48.642;9.008;2024-01-16T13:20:01;6.43;;;2.00;;
29006;SDS011;16104;48.642;9.008;2024-01-16T13:24:58;4.07;;;2.60;;
29006;SDS011;16104;48.642;9.008;2024-01-16T13:29:53;4.07;;;2.20;;
29006;SDS011;16104;48.642;9.008;2024-01-16T13:34:49;9.07;;;2.05;;
29006;SDS011;16104;48.642;9.008;2024-01-16T13:39:44;4.78;;;1.65;;
29006;SDS011;16104;48.642;9.008;2024-01-16T13:44:40;4.07;;;2.10;;
29006;SDS011;16104;48.642;9.008;2024-01-16T13:49:35;2.40;;;1.65;;
29006;SDS011;16104;48.642;9.008;2024-01-16T13:54:31;6.28;;;2.05;;
29006;SDS011;16104;48.642;9.008;2024-01-16T13:59:26;3.38;;;1.77;;
29006;SDS011;16104;48.642;9.008;2024-01-16T14:04:22;3.80;;;2.30;;
29006;SDS011;16104;48.642;9.008;2024-01-16T14:09:18;3.05;;;1.73;;
29006;SDS011;16104;48.642;9.008;2024-01-16T14:14:14;7.22;;;2.28;;
29006;SDS011;16104;48.642;9.008;2024-01-16T14:19:09;7.00;;;2.65;;
29006;SDS011;16104;48.642;9.008;2024-01-16T14:24:05;4.15;;;3.20;;
29006;SDS011;16104;48.642;9.008;2024-01-16T14:29:00;9.07;;;3.25;;
29006;SDS011;16104;48.642;9.008;2024-01-16T14:33:56;7.80;;;3.63;;
29006;SDS011;16104;48.642;9.008;2024-01-16T14:38:51;4.50;;;3.47;;
29006;SDS011;16104;48.642;9.008;2024-01-16T14:43:47;7.18;;;3.92;;
29006;SDS011;16104;48.642;9.008;2024-01-16T14:48:46;5.65;;;4.10;;
29006;SDS011;16104;48.642;9.008;2024-01-16T14:53:41;7.70;;;4.50;;
29006;SDS011;16104;48.642;9.008;2024-01-16T14:58:37;9.15;;;4.70;;
29006;SDS011;16104;48.642;9.008;2024-01-16T15:03:32;9.30;;;4.45;;
29006;SDS011;16104;48.642;9.008;2024-01-16T15:08:28;15.07;;;5.65;;
29006;SDS011;16104;48.642;9.008;2024-01-16T15:13:26;8.35;;;4.93;;
29006;SDS011;16104;48.642;9.008;2024-01-16T15:18:21;9.70;;;4.20;;
29006;SDS011;16104;48.642;9.008;2024-01-16T15:23:17;9.23;;;5.07;;
29006;SDS011;16104;48.642;9.008;2024-01-16T15:28:12;9.38;;;5.03;;
29006;SDS011;16104;48.642;9.008;2024-01-16T15:33:08;7.38;;;4.80;;
29006;SDS011;16104;48.642;9.008;2024-01-16T15:38:04;9.73;;;4.85;;
29006;SDS011;16104;48.642;9.008;2024-01-16T15:42:59;9.48;;;5.25;;
29006;SDS011;16104;48.642;9.008;2024-01-16T15:47:55;8.38;;;4.78;;
29006;SDS011;16104;48.642;9.008;2024-01-16T15:52:51;10.40;;;4.95;;
29006;SDS011;16104;48.642;9.008;2024-01-16T15:57:47;13.02;;;5.25;;
29006;SDS011;16104;48.642;9.008;2024-01-16T16:02:43;9.95;;;4.60;;
29006;SDS011;16104;48.642;9.008;2024-01-16T16:07:42;10.13;;;5.00;;
29006;SDS011;16104;48.642;9.008;2024-01-16T16:12:38;12.05;;;5.55;;
29006;SDS011;16104;48.642;9.008;2024-01-16T16:17:34;9.18;;;5.28;;
29006;SDS011;16104;48.642;9.008;2024-01-16T16:22:29;11.90;;;6.80;;
29006;SDS011;16104;48.642;9.008;2024-01-16T16:27:25;12.93;;;6.65;;
29006;SDS011;16104;48.642;9.008;2024-01-16T16:32:23;14.52;;;7.72;;
29006;SDS011;16104;48.642;9.008;2024-01-16T16:37:19;11.90;;;7.35;;
29006;SDS011;16104;48.642;9.008;2024-01-16T16:42:15;10.70;;;6.68;;
29006;SDS011;16104;48.642;9.008;2024-01-16T16:47:12;11.27;;;6.75;;
29006;SDS011;16104;48.642;9.008;2024-01-16T16:52:10;13.30;;;7.70;;
29006;SDS011;16104;48.642;9.008;2024-01-16T16:57:05;16.00;;;9.15;;
29006;SDS011;16104;48.642;9.008;2024-01-16T17:02:01;28.27;;;13.70;;
29006;SDS011;16104;48.642;9.008;2024-01-16T17:06:56;30.98;;;17.00;;
29006;SDS011;16104;48.642;9.008;2024-01-16T17:11:53;29.33;;;14.95;;
29006;SDS011;16104;48.642;9.008;2024-01-16T17:16:49;27.40;;;14.20;;
29006;SDS011;16104;48.642;9.008;2024-01-16T17:21:44;32.88;;;15.23;;
29006;SDS011;16104;48.642;9.008;2024-01-16T17:26:40;62.88;;;24.35;;
29006;SDS011;16104;48.642;9.008;2024-01-16T17:31:36;29.92;;;14.30;;
29006;SDS011;16104;48.642;9.008;2024-01-16T17:36:32;18.83;;;10.75;;
29006;SDS011;16104;48.642;9.008;2024-01-16T17:41:28;18.52;;;10.65;;
29006;SDS011;16104;48.642;9.008;2024-01-16T17:46:23;18.13;;;10.43;;
29006;SDS011;16104;48.642;9.008;2024-01-16T17:51:19;18.60;;;10.63;;
29006;SDS011;16104;48.642;9.008;2024-01-16T17:56:15;19.08;;;10.98;;
29006;SDS011;16104;48.642;9.008;2024-01-16T18:01:11;19.05;;;9.90;;
29006;SDS011;16104;48.642;9.008;2024-01-16T18:06:07;17.65;;;9.98;;
29006;SDS011;16104;48.642;9.008;2024-01-16T18:11:02;16.95;;;10.10;;
29006;SDS011;16104;48.642;9.008;2024-01-16T18:15:59;17.08;;;10.20;;
29006;SDS011;16104;48.642;9.008;2024-01-16T18:25:55;16.58;;;9.63;;
29006;SDS011;16104;48.642;9.008;2024-01-16T18:30:50;19.23;;;10.68;;
29006;SDS011;16104;48.642;9.008;2024-01-16T18:35:46;22.33;;;11.88;;
29006;SDS011;16104;48.642;9.008;2024-01-16T18:40:42;24.17;;;11.05;;
29006;SDS011;16104;48.642;9.008;2024-01-16T18:45:37;16.80;;;9.70;;
29006;SDS011;16104;48.642;9.008;2024-01-16T18:50:33;19.75;;;11.07;;
29006;SDS011;16104;48.642;9.008;2024-01-16T18:55:28;19.88;;;11.20;;
29006;SDS011;16104;48.642;9.008;2024-01-16T19:00:24;17.75;;;10.02;;
29006;SDS011;16104;48.642;9.008;2024-01-16T19:05:19;20.98;;;11.50;;
29006;SDS011;16104;48.642;9.008;2024-01-16T19:10:16;17.30;;;9.38;;
29006;SDS011;16104;48.642;9.008;2024-01-16T19:15:15;22.13;;;12.70;;
29006;SDS011;16104;48.642;9.008;2024-01-16T19:25:08;18.92;;;9.88;;
29006;SDS011;16104;48.642;9.008;2024-01-16T19:30:05;36.90;;;17.83;;
29006;SDS011;16104;48.642;9.008;2024-01-16T19:35:08;28.73;;;16.58;;
29006;SDS011;16104;48.642;9.008;2024-01-16T19:40:05;22.95;;;13.02;;
29006;SDS011;16104;48.642;9.008;2024-01-16T19:45:11;22.15;;;12.95;;
29006;SDS011;16104;48.642;9.008;2024-01-16T19:50:08;32.65;;;16.63;;
29006;SDS011;16104;48.642;9.008;2024-01-16T19:55:24;30.75;;;15.90;;
29006;SDS011;16104;48.642;9.008;2024-01-16T20:00:20;24.98;;;14.15;;
29006;SDS011;16104;48.642;9.008;2024-01-16T20:05:16;27.85;;;16.35;;
29006;SDS011;16104;48.642;9.008;2024-01-16T20:10:11;21.00;;;11.82;;
29006;SDS011;16104;48.642;9.008;2024-01-16T20:15:13;22.15;;;13.25;;
29006;SDS011;16104;48.642;9.008;2024-01-16T20:20:11;21.63;;;11.35;;
29006;SDS011;16104;48.642;9.008;2024-01-16T20:25:08;19.35;;;9.88;;
29006;SDS011;16104;48.642;9.008;2024-01-16T20:30:07;12.93;;;8.63;;
29006;SDS011;16104;48.642;9.008;2024-01-16T20:35:04;12.50;;;7.18;;
29006;SDS011;16104;48.642;9.008;2024-01-16T20:40:02;16.00;;;8.77;;
29006;SDS011;16104;48.642;9.008;2024-01-16T20:44:59;22.73;;;11.88;;
29006;SDS011;16104;48.642;9.008;2024-01-16T20:49:55;15.77;;;10.02;;
29006;SDS011;16104;48.642;9.008;2024-01-16T20:54:51;20.55;;;10.80;;
29006;SDS011;16104;48.642;9.008;2024-01-16T20:59:46;19.20;;;9.73;;
29006;SDS011;16104;48.642;9.008;2024-01-16T21:04:42;14.85;;;8.38;;
29006;SDS011;16104;48.642;9.008;2024-01-16T21:09:39;19.83;;;9.73;;
29006;SDS011;16104;48.642;9.008;2024-01-16T21:14:37;16.30;;;9.02;;
29006;SDS011;16104;48.642;9.008;2024-01-16T21:19:33;13.80;;;9.27;;
29006;SDS011;16104;48.642;9.008;2024-01-16T21:24:28;17.63;;;9.63;;
29006;SDS011;16104;48.642;9.008;2024-01-16T21:29:25;16.27;;;10.50;;
29006;SDS011;16104;48.642;9.008;2024-01-16T21:34:20;17.65;;;8.90;;
29006;SDS011;16104;48.642;9.008;2024-01-16T21:39:17;15.30;;;9.45;;
29006;SDS011;16104;48.642;9.008;2024-01-16T21:44:15;15.63;;;8.48;;
29006;SDS011;16104;48.642;9.008;2024-01-16T21:49:10;19.08;;;9.45;;
29006;SDS011;16104;48.642;9.008;2024-01-16T21:54:06;15.95;;;8.27;;
29006;SDS011;16104;48.642;9.008;2024-01-16T21:59:01;12.93;;;8.20;;
29006;SDS011;16104;48.642;9.008;2024-01-16T22:03:57;26.15;;;10.98;;
29006;SDS011;16104;48.642;9.008;2024-01-16T22:08:52;23.35;;;10.65;;
29006;SDS011;16104;48.642;9.008;2024-01-16T22:13:48;22.50;;;11.55;;
29006;SDS011;16104;48.642;9.008;2024-01-16T22:18:43;21.17;;;11.57;;
29006;SDS011;16104;48.642;9.008;2024-01-16T22:23:39;19.95;;;11.07;;
29006;SDS011;16104;48.642;9.008;2024-01-16T22:28:34;18.80;;;11.18;;
29006;SDS011;16104;48.642;9.008;2024-01-16T22:33:32;17.60;;;8.82;;
29006;SDS011;16104;48.642;9.008;2024-01-16T22:38:28;22.02;;;11.10;;
29006;SDS011;16104;48.642;9.008;2024-01-16T22:43:23;20.00;;;10.50;;
29006;SDS011;16104;48.642;9.008;2024-01-16T22:48:19;19.20;;;10.52;;
29006;SDS011;16104;48.642;9.008;2024-01-16T22:53:15;23.20;;;12.55;;
29006;SDS011;16104;48.642;9.008;2024-01-16T22:58:10;17.35;;;10.93;;
29006;SDS011;16104;48.642;9.008;2024-01-16T23:03:06;21.27;;;10.93;;
29006;SDS011;16104;48.642;9.008;2024-01-16T23:08:04;23.73;;;11.98;;
29006;SDS011;16104;48.642;9.008;2024-01-16T23:17:59;21.33;;;11.48;;
29006;SDS011;16104;48.642;9.008;2024-01-16T23:22:55;19.00;;;12.00;;
29006;SDS011;16104;48.642;9.008;2024-01-16T23:27:51;21.67;;;12.38;;
29006;SDS011;16104;48.642;9.008;2024-01-16T23:32:47;21.50;;;13.27;;
29006;SDS011;16104;48.642;9.008;2024-01-16T23:37:42;21.35;;;12.13;;
29006;SDS011;16104;48.642;9.008;2024-01-16T23:42:38;20.92;;;11.27;;
29006;SDS011;16104;48.642;9.008;2024-01-16T23:47:34;24.75;;;13.15;;
29006;SDS011;16104;48.642;9.008;2024-01-16T23:52:30;23.65;;;13.10;;
29006;SDS011;16104;48.642;9.008;2024-01-16T23:57:26;31.55;;;16.83;;
